Pagrindinis puslapis
METAR-TAF:

METAR-TAF

Oro uostai :

Vinja del Maras, Čilė

platuma: 32-56-59S, ilguma: 71-28-43W, Aukštis: 141 m

Dabartinis oras

Ataskaita buvo paskelbta 13 minutes, ne 18:00 UTC
Vėjas 11 kt iš Vakarų
Temperatūra 19°C
Drėgmė 56%
Slėgis 1019 hPa
Matomumas 10 km arba daugiau
Mažai debesys ne aukštis 1000 ft

METAR: SCVM 271800Z 27011KT 9999 FEW010 19/10 Q1019

Laikas: 15:13 (18:13 UTC)

Prognozė

Ataskaita buvo paskelbta 2 valandos ir 13 minutes, ne 16:00 UTC
Prognozė galioja nuo 27 metu 18 UTC su 28 metu 18 UTC
Vėjas 12 kt iš Šiaurės Vakarų
Matomumas 10 km arba daugiau
nėra debesų žemiau 1500 m ir nėra kamuolinių lietaus debesų
Laikinai
nuo 27 metu 19 UTC su 28 metu 00 UTC
Vėjas 15 kt iš Vakarų/Pietvakarių
Mažai debesys ne aukštis 2000 ft
Tapsmas
nuo 28 metu 01 UTC su 28 metu 03 UTC
Vėjas 8 kt iš Pietų
Tapsmas
nuo 28 metu 16 UTC su 28 metu 18 UTC
Vėjas 15 kt iš Vakarų/Pietvakarių

TAF: SCVM 271600Z 2718/2818 31012KT CAVOK TX22/2719Z TN12/2810Z TEMPO 2719/2800 24015KT FEW020 BECMG 2801/2803 17008KT BECMG 2816/2818 24015KT

Orai ataskaitas ir orų prognozės (METAR, TAF).

turimą stotys yra geltonos ir raudonos taškus žemėlapyje.

Perkelti pele per norėdami pamatyti stoties vardą.

Tada spustelėkite, norėdami matyti oro stebėjimo ir prognozės.

Norėdami pakeisti žemėlapį: spustelėkite ant žalios mygtukų su juodo kryžiaus žemyn,; žalią mygtuką su brūkšneliu, jei norite nutolinti; arba žalių rodyklių gretimoms žemėlapius.


METAR-TAF: